createdAt,value
2023-04-18T04:59:03.395Z,5.85
2023-04-18T05:02:06.943Z,4.43
2023-04-18T05:05:10.410Z,4.70
2023-04-18T05:08:13.773Z,6.37
2023-04-18T05:11:17.203Z,5.70
2023-04-18T05:14:21.682Z,4.63
2023-04-18T05:17:24.879Z,4.93
2023-04-18T05:20:28.052Z,4.70
2023-04-18T05:23:31.638Z,4.93
2023-04-18T05:26:34.796Z,5.40
2023-04-18T05:29:39.416Z,5.30
2023-04-18T05:32:42.741Z,6.00
2023-04-18T05:35:46.274Z,5.82
2023-04-18T05:38:49.436Z,5.40
2023-04-18T05:41:52.820Z,5.70
2023-04-18T05:44:57.352Z,6.13
2023-04-18T05:48:01.090Z,5.53
2023-04-18T05:51:06.013Z,5.90
2023-04-18T05:54:09.409Z,5.97
2023-04-18T05:57:12.685Z,6.13
2023-04-18T06:00:19.272Z,4.97
2023-04-18T06:03:22.932Z,4.53
2023-04-18T06:06:27.644Z,4.07
2023-04-18T06:09:31.162Z,3.83
2023-04-18T06:12:36.707Z,4.35
2023-04-18T06:15:42.157Z,4.10
2023-04-18T06:18:47.586Z,3.85
2023-04-18T06:21:51.556Z,4.57
2023-04-18T06:24:55.739Z,4.20
2023-04-18T06:27:59.847Z,4.47
2023-04-18T06:31:04.339Z,4.07
2023-04-18T06:34:07.545Z,4.03
2023-04-18T06:37:13.241Z,3.70
2023-04-18T06:40:36.652Z,3.97
2023-04-18T06:43:46.570Z,3.25
2023-04-18T06:47:07.492Z,3.30
2023-04-18T06:50:34.957Z,4.32
2023-04-18T06:53:38.964Z,2.63
2023-04-18T06:56:42.059Z,3.10
2023-04-18T06:59:46.113Z,2.90
2023-04-18T07:02:50.947Z,2.65
2023-04-18T07:05:55.652Z,2.85
2023-04-18T07:09:01.010Z,2.35
2023-04-18T07:12:04.299Z,2.80
2023-04-18T07:15:08.648Z,2.40
2023-04-18T07:18:16.127Z,2.10
2023-04-18T07:21:23.928Z,2.00
2023-04-18T07:24:27.099Z,2.47
2023-04-18T07:27:30.166Z,1.80
2023-04-18T07:30:33.332Z,2.20
2023-04-18T07:33:37.937Z,2.30
2023-04-18T07:36:41.839Z,2.28
2023-04-18T07:39:44.920Z,2.78
2023-04-18T07:42:48.181Z,2.43
2023-04-18T07:45:55.149Z,2.70
2023-04-18T07:49:02.390Z,2.83
2023-04-18T07:52:19.999Z,2.58
2023-04-18T07:55:25.428Z,2.55
2023-04-18T07:58:28.527Z,2.50
2023-04-18T08:01:34.806Z,2.40
2023-04-18T08:04:41.010Z,2.40
2023-04-18T08:07:44.401Z,2.55
2023-04-18T08:10:47.550Z,2.40
2023-04-18T08:13:50.653Z,2.60
2023-04-18T08:17:01.147Z,2.83
2023-04-18T08:20:13.043Z,2.83
2023-04-18T08:23:16.478Z,2.63
2023-04-18T08:26:19.728Z,2.80
2023-04-18T08:29:25.459Z,2.50
2023-04-18T08:32:28.992Z,2.97
2023-04-18T08:35:35.554Z,2.92
2023-04-18T08:38:38.801Z,2.95
2023-04-18T08:41:53.001Z,3.30
2023-04-18T08:45:02.129Z,2.70
2023-04-18T08:48:08.014Z,2.60
2023-04-18T08:51:21.883Z,2.58
2023-04-18T08:54:30.646Z,2.70
2023-04-18T08:57:35.379Z,2.65
2023-04-18T09:00:39.697Z,2.20
2023-04-18T09:03:45.174Z,2.10
2023-04-18T09:07:50.241Z,2.22
2023-04-18T09:10:58.636Z,2.00
2023-04-18T09:14:02.566Z,1.80
2023-04-18T09:17:06.881Z,1.60
2023-04-18T09:20:15.846Z,1.35
2023-04-18T09:23:26.201Z,1.48
2023-04-18T09:26:40.655Z,1.02
2023-04-18T09:30:18.277Z,1.20
2023-04-18T09:33:37.434Z,1.43
2023-04-18T09:36:42.025Z,2.78
2023-04-18T09:39:46.788Z,1.67
2023-04-18T09:42:55.571Z,6.28
2023-04-18T09:46:01.456Z,1.30
2023-04-18T09:49:09.668Z,1.10
2023-04-18T09:52:14.608Z,1.10
2023-04-18T09:55:20.451Z,1.30
2023-04-18T09:58:24.390Z,1.27
2023-04-18T10:01:29.842Z,1.90
2023-04-18T10:04:34.162Z,1.07
2023-04-18T10:07:38.015Z,1.20
2023-04-18T10:10:43.377Z,1.42
2023-04-18T10:13:57.920Z,1.05
2023-04-18T10:17:02.373Z,1.20
2023-04-18T10:20:11.299Z,1.80
2023-04-18T10:23:39.223Z,1.45
2023-04-18T10:26:50.599Z,2.50
2023-04-18T10:29:55.142Z,1.50
2023-04-18T10:32:58.569Z,1.40
2023-04-18T10:36:05.004Z,1.70
2023-04-18T10:39:49.903Z,2.20
2023-04-18T10:43:00.914Z,1.80
2023-04-18T10:46:31.109Z,1.60
2023-04-18T10:49:37.877Z,1.60
2023-04-18T10:52:41.627Z,1.37
2023-04-18T10:55:53.207Z,1.30
2023-04-18T10:59:04.080Z,2.90
2023-04-18T11:02:20.152Z,1.63
2023-04-18T11:05:25.618Z,1.35
2023-04-18T11:08:28.855Z,1.57
2023-04-18T11:11:31.992Z,1.55
2023-04-18T11:14:43.485Z,2.10
2023-04-18T11:17:46.601Z,1.70
2023-04-18T11:20:52.027Z,1.80
2023-04-18T11:23:56.454Z,1.90
2023-04-18T11:27:00.201Z,3.03
2023-04-18T11:34:47.323Z,1.70
2023-04-18T11:37:51.369Z,1.10
2023-04-18T11:40:57.233Z,1.10
2023-04-18T11:44:01.482Z,1.38
2023-04-18T11:47:04.605Z,1.10
2023-04-18T11:50:10.845Z,1.20
2023-04-18T11:53:14.175Z,1.50
2023-04-18T11:56:19.643Z,1.33
2023-04-18T11:59:23.729Z,1.30
2023-04-18T12:02:39.787Z,1.30
2023-04-18T12:05:44.789Z,1.40
2023-04-18T12:08:48.686Z,1.23
2023-04-18T12:12:02.982Z,1.50
2023-04-18T12:15:10.646Z,1.15
2023-04-18T12:18:15.391Z,1.10
2023-04-18T12:21:20.118Z,1.20
2023-04-18T12:24:26.813Z,1.00
2023-04-18T12:27:48.501Z,1.30
2023-04-18T12:30:53.573Z,1.50
2023-04-18T12:34:00.557Z,1.23
2023-04-18T12:37:05.458Z,1.35
2023-04-18T12:40:10.882Z,1.77
2023-04-18T12:43:16.118Z,1.80
2023-04-18T12:46:19.350Z,1.50
2023-04-18T12:49:22.434Z,2.05
2023-04-18T12:52:27.331Z,1.80
2023-04-18T12:55:30.793Z,2.17
2023-04-18T12:58:34.070Z,2.17
2023-04-18T13:01:37.249Z,1.88
2023-04-18T13:04:40.863Z,2.40
2023-04-18T13:07:47.377Z,2.33
2023-04-18T13:10:52.050Z,2.90
2023-04-18T13:13:55.192Z,2.73
2023-04-18T13:16:58.335Z,2.47
2023-04-18T13:20:01.925Z,2.35
2023-04-18T13:23:06.475Z,2.70
2023-04-18T13:26:09.695Z,2.90
2023-04-18T13:29:13.177Z,2.37
2023-04-18T13:32:16.667Z,2.45
2023-04-18T13:35:20.140Z,2.42
2023-04-18T13:38:24.598Z,2.65
2023-04-18T13:41:29.076Z,2.58
2023-04-18T13:44:32.682Z,2.43
2023-04-18T13:47:39.418Z,2.60
2023-04-18T13:50:42.882Z,2.83
2023-04-18T13:53:47.311Z,2.53
2023-04-18T13:56:50.503Z,2.60
2023-04-18T13:59:53.648Z,2.20
2023-04-18T14:02:57.663Z,2.17
2023-04-18T14:06:00.889Z,2.75
2023-04-18T14:09:06.860Z,2.58
2023-04-18T14:12:10.685Z,2.05
2023-04-18T14:15:13.723Z,2.37
2023-04-18T14:18:21.542Z,2.60
2023-04-18T14:21:24.813Z,2.00
2023-04-18T14:24:29.499Z,1.98
2023-04-18T14:27:33.033Z,1.73
2023-04-18T14:30:36.826Z,1.90
2023-04-18T14:33:39.884Z,1.88
2023-04-18T14:36:42.901Z,1.60
2023-04-18T14:39:48.636Z,1.70
2023-04-18T14:42:51.769Z,1.40
2023-04-18T14:45:58.986Z,1.90
2023-04-18T14:49:02.928Z,1.67
2023-04-18T14:52:06.316Z,1.65
2023-04-18T14:55:11.717Z,1.67
2023-04-18T14:58:15.560Z,1.70
2023-04-18T15:01:18.977Z,1.40
2023-04-18T15:04:22.489Z,1.48
2023-04-18T15:07:25.824Z,1.60
2023-04-18T15:10:30.266Z,1.60
2023-04-18T15:13:34.147Z,1.50
2023-04-18T15:16:39.462Z,1.60
2023-04-18T15:19:42.556Z,1.70
2023-04-18T15:22:46.209Z,1.60
2023-04-18T15:25:50.672Z,1.70
2023-04-18T15:28:55.209Z,1.70
2023-04-18T15:32:07.104Z,1.80
2023-04-18T15:35:10.755Z,1.70
2023-04-18T15:38:14.585Z,1.92
2023-04-18T15:41:24.095Z,1.70
2023-04-18T15:44:27.691Z,1.85
2023-04-18T15:47:31.272Z,1.83
